Time;durP1;ratioP1;P1;durP2;ratioP2;P2;SDS_P1;SDS_P2;PMS_P1;PMS_P2;Temp;Humidity;BMP_temperature;BMP_pressure;BME280_temperature;BME280_humidity;BME280_pressure;Samples;Min_cycle;Max_cycle;Signal;HPM_P1;HPM_P2
2022/09/07 00:01:26;;;;;;;7.47;1.52;;;;;;;19.76;89.60;101057.19;4997397;28;20033;-78
2022/09/07 00:03:55;;;;;;;6.82;1.98;;;;;;;19.69;89.16;101061.66;4997963;28;21339;-78
2022/09/07 00:06:21;;;;;;;5.40;1.65;;;;;;;19.67;88.10;101068.97;5021225;28;20395;-78
2022/09/07 00:08:47;;;;;;;5.55;1.30;;;;;;;19.70;87.97;101066.69;5006227;28;20042;-77
2022/09/07 00:11:15;;;;;;;4.90;1.40;;;;;;;19.65;88.33;101067.31;4996761;28;20036;-78
2022/09/07 00:13:43;;;;;;;8.68;1.50;;;;;;;19.70;88.64;101073.78;5023079;28;20042;-77
2022/09/07 00:16:29;;;;;;;4.18;1.35;;;;;;;19.65;88.67;101091.00;4979787;28;20048;-76
2022/09/07 00:18:57;;;;;;;3.63;1.15;;;;;;;19.56;88.45;101076.47;4994945;28;20065;-78
2022/09/07 00:21:24;;;;;;;5.35;1.45;;;;;;;19.48;89.75;101068.00;5013204;28;20041;-78
2022/09/07 00:23:50;;;;;;;4.75;2.17;;;;;;;19.44;90.44;101073.69;5009636;28;20030;-78
2022/09/07 00:26:27;;;;;;;3.47;1.73;;;;;;;19.47;91.13;101077.72;4986271;28;20042;-78
2022/09/07 00:28:57;;;;;;;5.55;1.67;;;;;;;19.51;91.64;101086.00;4997383;28;20478;-78
2022/09/07 00:31:23;;;;;;;4.60;1.52;;;;;;;19.52;92.16;101077.91;4998964;28;20042;-76
2022/09/07 00:33:51;;;;;;;9.30;1.88;;;;;;;19.60;91.21;101072.41;5003538;28;20030;-78
2022/09/07 00:36:19;;;;;;;6.35;2.97;;;;;;;19.52;90.56;101087.63;4996629;28;20050;-78
2022/09/07 00:38:44;;;;;;;5.00;1.83;;;;;;;19.38;91.35;101076.34;5003757;28;20029;-78
2022/09/07 00:41:11;;;;;;;5.85;1.65;;;;;;;19.29;92.00;101069.69;5014246;28;20030;-77
2022/09/07 00:43:42;;;;;;;6.68;1.67;;;;;;;19.23;93.40;101064.25;4996178;28;20112;-76
2022/09/07 00:46:23;;;;;;;4.20;1.27;;;;;;;19.25;93.44;101053.53;4983579;28;20121;-76
2022/09/07 00:48:56;;;;;;;6.18;1.90;;;;;;;19.24;93.54;101039.56;4986297;28;20522;-77
2022/09/07 00:51:30;;;;;;;6.90;2.03;;;;;;;19.24;93.61;101033.50;5013093;28;20084;-78
2022/09/07 00:54:04;;;;;;;5.90;1.77;;;;;;;19.20;93.25;101032.31;4983867;28;20041;-78
2022/09/07 00:56:33;;;;;;;9.07;1.88;;;;;;;19.15;93.70;101014.53;5030193;28;20522;-77
2022/09/07 00:58:59;;;;;;;8.05;1.85;;;;;;;19.21;92.27;101029.50;5013578;28;20223;-77
2022/09/07 01:01:26;;;;;;;6.28;1.90;;;;;;;19.00;93.07;101056.00;5014302;28;20040;-76
2022/09/07 01:03:54;;;;;;;10.25;2.72;;;;;;;18.77;95.57;101057.22;4997374;28;20037;-76
2022/09/07 01:06:25;;;;;;;6.88;2.50;;;;;;;18.75;95.64;101059.25;5003877;28;20046;-75
2022/09/07 01:08:52;;;;;;;9.48;2.47;;;;;;;18.73;95.98;101060.50;5001773;28;20487;-76
2022/09/07 01:11:19;;;;;;;8.23;2.33;;;;;;;18.62;96.83;101046.16;5028989;28;20574;-76
2022/09/07 01:13:46;;;;;;;9.45;2.53;;;;;;;18.55;97.05;101026.94;4997672;28;20033;-77
2022/09/07 01:16:17;;;;;;;10.00;3.13;;;;;;;18.40;97.57;101017.50;4999270;28;20030;-76
2022/09/07 01:18:59;;;;;;;5.03;2.53;;;;;;;18.43;97.78;101009.19;5010849;28;20065;-77
2022/09/07 01:21:51;;;;;;;6.80;2.43;;;;;;;18.46;97.39;101018.50;4998832;28;20097;-77
2022/09/07 01:24:33;;;;;;;4.88;2.30;;;;;;;18.35;97.59;101008.59;4998546;28;20594;-76
2022/09/07 01:27:21;;;;;;;6.47;2.42;;;;;;;18.25;98.49;101017.69;5011073;28;20046;-76
2022/09/07 01:30:04;;;;;;;6.97;2.10;;;;;;;18.26;98.70;101007.97;4996786;28;20448;-76
2022/09/07 01:32:59;;;;;;;5.45;1.92;;;;;;;18.27;98.64;101014.84;4996656;28;20036;-76
2022/09/07 01:35:42;;;;;;;7.85;1.90;;;;;;;18.27;99.99;101026.16;5026966;28;20465;-75
2022/09/07 01:38:14;;;;;;;7.15;2.30;;;;;;;18.33;100.00;101029.78;5001516;28;20032;-77
2022/09/07 01:40:51;;;;;;;4.88;1.77;;;;;;;18.39;100.00;101026.34;4997483;28;20530;-76
2022/09/07 01:43:41;;;;;;;4.00;1.52;;;;;;;18.45;100.00;101022.91;4999499;28;20233;-76
2022/09/07 01:46:17;;;;;;;4.75;2.08;;;;;;;18.51;99.85;101010.00;5011184;28;20510;-77
2022/09/07 01:48:45;;;;;;;3.22;1.20;;;;;;;18.55;98.99;101013.81;5001898;28;20084;-76
2022/09/07 01:51:11;;;;;;;7.85;1.52;;;;;;;18.60;97.14;101012.19;4997324;28;20061;-76
2022/09/07 01:53:46;;;;;;;4.07;1.42;;;;;;;18.55;97.23;101011.19;4997547;28;20104;-76
2022/09/07 01:56:16;;;;;;;3.67;1.45;;;;;;;18.57;97.80;101014.44;4985115;28;20311;-77
2022/09/07 01:58:44;;;;;;;5.57;1.60;;;;;;;18.56;98.16;101020.69;4999580;28;20054;-76
2022/09/07 02:01:15;;;;;;;3.80;1.40;;;;;;;18.53;98.62;101018.47;5010939;28;20034;-77
2022/09/07 02:03:46;;;;;;;5.90;1.45;;;;;;;18.51;98.53;101015.25;4998796;28;20079;-76
2022/09/07 02:06:25;;;;;;;3.97;1.27;;;;;;;18.50;97.10;101014.44;4999077;28;20819;-76
2022/09/07 02:08:57;;;;;;;3.45;1.45;;;;;;;18.46;97.45;101000.91;5001182;28;20044;-75
2022/09/07 02:11:38;;;;;;;5.68;1.30;;;;;;;18.41;98.02;100989.41;4996836;28;20045;-76
2022/09/07 02:14:30;;;;;;;2.58;1.35;;;;;;;18.36;98.10;100990.00;4995757;28;21729;-76
2022/09/07 02:17:16;;;;;;;11.43;2.03;;;;;;;18.33;98.10;100979.94;4993482;28;20030;-76
2022/09/07 02:19:50;;;;;;;7.78;1.80;;;;;;;18.23;98.58;100972.47;4995148;28;20083;-76
2022/09/07 02:22:23;;;;;;;4.70;1.33;;;;;;;18.22;99.69;100977.91;4999111;28;20026;-75
2022/09/07 02:24:53;;;;;;;5.45;1.58;;;;;;;18.23;99.22;100969.00;5010173;28;20614;-76
2022/09/07 02:27:25;;;;;;;4.97;1.90;;;;;;;18.24;99.52;100976.69;4998328;28;20042;-74
2022/09/07 02:29:51;;;;;;;5.03;1.80;;;;;;;18.24;99.64;100973.25;4992857;28;20069;-75
2022/09/07 02:32:17;;;;;;;3.40;1.70;;;;;;;18.23;98.38;100961.97;5013858;28;20538;-76
2022/09/07 02:34:43;;;;;;;4.70;1.80;;;;;;;18.21;98.40;100957.91;4997541;28;20034;-75
2022/09/07 02:37:11;;;;;;;3.78;1.70;;;;;;;18.19;98.73;100960.72;4982067;28;20569;-76
2022/09/07 02:39:37;;;;;;;5.88;2.05;;;;;;;18.23;98.94;100969.00;5022823;28;20042;-75
2022/09/07 02:42:03;;;;;;;4.53;1.88;;;;;;;18.14;98.99;100973.66;4997489;28;20041;-76
2022/09/07 02:44:33;;;;;;;7.30;2.25;;;;;;;18.14;98.57;100964.97;4998455;28;20030;-75
2022/09/07 02:47:25;;;;;;;6.97;2.28;;;;;;;18.13;98.69;100968.63;5002224;28;20072;-75
2022/09/07 02:50:18;;;;;;;7.68;3.03;;;;;;;18.08;99.25;100956.91;5021191;28;20462;-75
2022/09/07 02:52:46;;;;;;;;;;;;;;;18.07;99.28;100952.66;4993057;28;20042;-74
2022/09/07 02:55:53;;;;;;;7.57;2.88;;;;;;;18.05;98.87;100959.94;4994808;28;19921;-75
2022/09/07 02:58:28;;;;;;;6.20;2.67;;;;;;;18.09;98.79;100965.59;4978988;28;20067;-75
2022/09/07 03:01:12;;;;;;;6.18;2.72;;;;;;;18.12;98.52;100967.00;5007276;28;20475;-76
2022/09/07 03:04:01;;;;;;;3.50;2.25;;;;;;;18.13;98.56;100960.75;5021087;28;20420;-76
2022/09/07 03:06:52;;;;;;;2.67;2.00;;;;;;;18.14;98.51;100964.97;5010066;28;20036;-76
2022/09/07 03:09:29;;;;;;;5.55;2.30;;;;;;;18.12;98.17;100962.56;4995643;28;20677;-76
2022/09/07 03:11:55;;;;;;;6.05;2.47;;;;;;;18.06;98.36;100958.09;4997487;28;20049;-75
2022/09/07 03:14:23;;;;;;;9.82;2.85;;;;;;;18.01;98.10;100957.94;4993637;28;20193;-74
2022/09/07 03:16:51;;;;;;;6.07;2.42;;;;;;;18.04;97.88;100960.94;5020571;28;21754;-76
2022/09/07 03:19:17;;;;;;;5.70;2.20;;;;;;;17.98;98.01;100961.75;4993778;28;20042;-73
2022/09/07 03:21:42;;;;;;;8.10;2.53;;;;;;;17.90;98.77;100965.38;5020871;28;20038;-75
2022/09/07 03:24:08;;;;;;;4.80;2.20;;;;;;;17.83;99.23;100961.91;4992313;28;20521;-76
2022/09/07 03:26:37;;;;;;;5.53;2.55;;;;;;;17.80;99.71;100972.81;4990914;28;20049;-73
2022/09/07 03:29:03;;;;;;;5.07;2.58;;;;;;;17.79;100.00;100965.13;5011800;28;20065;-76
2022/09/07 03:31:31;;;;;;;7.55;2.35;;;;;;;17.73;100.00;100958.06;4998079;28;20925;-75
2022/09/07 03:33:56;;;;;;;6.95;2.88;;;;;;;17.64;100.00;100955.63;4994057;28;20027;-74
2022/09/07 03:36:22;;;;;;;6.65;2.38;;;;;;;17.62;100.00;100964.69;4993413;28;20453;-75
2022/09/07 03:38:47;;;;;;;4.55;2.50;;;;;;;17.58;100.00;100966.91;5021441;28;20030;-75
2022/09/07 03:41:13;;;;;;;4.55;2.70;;;;;;;17.57;100.00;100961.84;4976305;28;20034;-75
2022/09/07 03:43:38;;;;;;;5.28;2.88;;;;;;;17.60;100.00;100966.72;5000541;28;20033;-74
2022/09/07 03:46:06;;;;;;;4.45;2.50;;;;;;;17.65;100.00;100959.88;4993705;28;20030;-75
2022/09/07 03:48:33;;;;;;;6.43;3.13;;;;;;;17.59;100.00;100957.22;4992710;28;20046;-73
2022/09/07 03:51:01;;;;;;;9.32;3.05;;;;;;;17.49;100.00;100960.22;4993866;28;20037;-75
2022/09/07 03:53:30;;;;;;;5.68;2.92;;;;;;;17.40;100.00;100953.53;5008730;28;20034;-75
2022/09/07 03:56:01;;;;;;;7.70;2.50;;;;;;;17.40;100.00;100954.34;4991635;28;20045;-74
2022/09/07 03:58:31;;;;;;;4.50;2.65;;;;;;;17.41;100.00;100952.53;4990862;28;20491;-74
2022/09/07 04:00:58;;;;;;;5.28;2.30;;;;;;;17.43;100.00;100945.28;4993732;28;20058;-73
2022/09/07 04:03:24;;;;;;;8.32;2.95;;;;;;;17.48;100.00;100942.91;5000924;28;20553;-76
2022/09/07 04:05:49;;;;;;;6.18;2.95;;;;;;;17.44;100.00;100933.78;4994195;28;20057;-76
2022/09/07 04:08:15;;;;;;;7.07;3.45;;;;;;;17.39;100.00;100938.84;4994059;28;20041;-75
2022/09/07 04:10:41;;;;;;;7.40;2.88;;;;;;;17.35;100.00;100940.22;4998425;28;20030;-74
2022/09/07 04:13:07;;;;;;;6.43;3.72;;;;;;;17.38;100.00;100937.19;4996538;28;20582;-74
2022/09/07 04:15:33;;;;;;;7.03;2.50;;;;;;;17.37;100.00;100940.84;4995053;28;20326;-75
2022/09/07 04:17:59;;;;;;;8.13;2.88;;;;;;;17.35;100.00;100941.03;4990877;28;20184;-76
2022/09/07 04:20:25;;;;;;;7.85;3.90;;;;;;;17.36;100.00;100941.84;5020560;28;20034;-75
2022/09/07 04:22:51;;;;;;;11.18;4.40;;;;;;;17.37;100.00;100932.97;4991024;28;20072;-76
2022/09/07 04:25:17;;;;;;;10.25;3.58;;;;;;;17.34;100.00;100931.53;5007780;28;20398;-76
2022/09/07 04:27:42;;;;;;;7.07;3.47;;;;;;;17.31;100.00;100917.03;4994782;28;20034;-76
2022/09/07 04:30:09;;;;;;;6.80;4.40;;;;;;;17.33;100.00;100924.72;4999674;28;20792;-76
2022/09/07 04:32:34;;;;;;;10.50;4.10;;;;;;;17.25;100.00;100924.88;5028475;28;20152;-73
2022/09/07 04:34:59;;;;;;;12.63;5.45;;;;;;;17.19;100.00;100929.06;4993999;28;20073;-75
2022/09/07 04:37:25;;;;;;;7.78;4.55;;;;;;;17.20;100.00;100930.72;4994628;28;20037;-75
2022/09/07 04:39:50;;;;;;;8.68;5.18;;;;;;;17.13;100.00;100927.25;5001505;28;20041;-76
2022/09/07 04:42:17;;;;;;;13.52;5.55;;;;;;;17.13;100.00;100922.00;5006188;28;20037;-74
2022/09/07 04:44:42;;;;;;;8.73;5.25;;;;;;;17.12;100.00;100926.44;5008222;28;20168;-75
2022/09/07 04:47:08;;;;;;;6.25;4.03;;;;;;;17.07;100.00;100933.28;5000805;28;21428;-76
2022/09/07 04:49:34;;;;;;;10.27;4.88;;;;;;;17.04;100.00;100928.41;5027702;28;20029;-76
2022/09/07 04:51:59;;;;;;;11.90;5.53;;;;;;;17.06;100.00;100931.66;4996303;28;20050;-76
2022/09/07 04:54:25;;;;;;;9.60;5.78;;;;;;;17.03;100.00;100924.19;5010780;28;20092;-76
2022/09/07 04:56:51;;;;;;;10.43;5.55;;;;;;;17.03;100.00;100938.09;5010538;28;20061;-74
2022/09/07 04:59:16;;;;;;;8.85;5.05;;;;;;;17.04;100.00;100952.00;4993848;28;20539;-74
2022/09/07 05:01:42;;;;;;;8.38;4.82;;;;;;;17.05;100.00;100943.16;5023300;28;20034;-75
2022/09/07 05:04:07;;;;;;;10.40;5.05;;;;;;;17.06;100.00;100932.44;4995118;28;20029;-76
2022/09/07 05:06:33;;;;;;;7.72;5.28;;;;;;;17.11;100.00;100937.13;5025467;28;20057;-75
2022/09/07 05:08:59;;;;;;;8.70;4.68;;;;;;;17.13;100.00;100943.78;5009045;28;20042;-76
2022/09/07 05:11:25;;;;;;;14.13;5.68;;;;;;;17.16;100.00;100942.59;4993348;28;20083;-76
2022/09/07 05:13:51;;;;;;;8.55;4.72;;;;;;;17.15;100.00;100934.91;4983278;28;20025;-73
2022/09/07 05:16:19;;;;;;;11.57;4.88;;;;;;;17.16;100.00;100944.38;4981854;28;20573;-76
2022/09/07 05:18:50;;;;;;;10.25;5.50;;;;;;;17.16;100.00;100939.13;4995034;28;20033;-75
2022/09/07 05:21:21;;;;;;;8.95;5.13;;;;;;;17.17;100.00;100944.19;5011182;28;20575;-75
2022/09/07 05:23:52;;;;;;;8.20;4.53;;;;;;;17.19;100.00;100939.56;4986784;28;20505;-76
2022/09/07 05:26:19;;;;;;;11.60;4.43;;;;;;;17.21;100.00;100939.38;4994260;28;21063;-75
2022/09/07 05:28:45;;;;;;;8.88;4.82;;;;;;;17.23;100.00;100934.72;5025000;28;20479;-76
2022/09/07 05:31:16;;;;;;;10.82;4.82;;;;;;;17.25;100.00;100930.94;4996198;28;20121;-75
2022/09/07 05:33:52;;;;;;;8.05;4.30;;;;;;;17.28;100.00;100935.75;4996765;28;20030;-75
2022/09/07 05:36:19;;;;;;;7.85;4.07;;;;;;;17.35;100.00;100942.81;4996511;28;20042;-76
2022/09/07 05:38:45;;;;;;;8.02;4.25;;;;;;;17.37;100.00;100946.88;4995217;28;20045;-74
2022/09/07 05:41:16;;;;;;;9.80;4.35;;;;;;;17.40;100.00;100943.06;5012462;28;20129;-75
2022/09/07 05:43:42;;;;;;;8.52;4.85;;;;;;;17.44;100.00;100941.66;5008026;28;20089;-75
2022/09/07 05:46:09;;;;;;;10.07;4.78;;;;;;;17.43;100.00;100940.84;4995082;28;20137;-76
2022/09/07 05:48:35;;;;;;;9.13;4.82;;;;;;;17.43;100.00;100943.47;4996974;28;20076;-76
2022/09/07 05:51:00;;;;;;;8.73;4.50;;;;;;;17.45;100.00;100938.84;4984913;28;20319;-76
2022/09/07 05:53:26;;;;;;;9.32;4.38;;;;;;;17.49;100.00;100940.06;5028855;28;20041;-75
2022/09/07 05:55:52;;;;;;;6.93;4.07;;;;;;;17.53;100.00;100932.59;5014143;28;20037;-76
2022/09/07 05:58:17;;;;;;;8.85;4.78;;;;;;;17.57;100.00;100935.63;4995686;28;20683;-75
2022/09/07 06:00:44;;;;;;;10.77;5.10;;;;;;;17.56;100.00;100939.28;4998050;28;20096;-76
2022/09/07 06:03:10;;;;;;;14.10;5.20;;;;;;;17.60;100.00;100943.13;5009685;28;20031;-75
2022/09/07 06:05:36;;;;;;;8.80;4.63;;;;;;;17.62;100.00;100954.22;5012701;28;20486;-75
2022/09/07 06:08:02;;;;;;;9.63;4.00;;;;;;;17.64;100.00;100950.38;5008240;28;20049;-73
2022/09/07 06:10:30;;;;;;;10.10;4.13;;;;;;;17.70;100.00;100959.25;5003266;28;20038;-76
2022/09/07 06:12:56;;;;;;;6.18;3.85;;;;;;;17.76;100.00;100958.44;5001006;28;20053;-76
2022/09/07 06:15:21;;;;;;;8.65;3.85;;;;;;;17.82;100.00;100962.09;4996623;28;20446;-75
2022/09/07 06:17:47;;;;;;;7.03;3.90;;;;;;;17.86;100.00;100953.66;5000112;28;20457;-76
2022/09/07 06:20:13;;;;;;;7.03;2.88;;;;;;;17.94;100.00;100957.09;5009693;28;20123;-75
2022/09/07 06:22:38;;;;;;;6.55;2.95;;;;;;;17.99;100.00;100952.88;5009847;28;20244;-75
2022/09/07 06:25:04;;;;;;;8.38;3.42;;;;;;;18.08;100.00;100958.72;4996404;28;20038;-76
2022/09/07 06:27:30;;;;;;;6.78;3.65;;;;;;;18.16;100.00;100958.53;4997334;28;20057;-75
2022/09/07 06:29:56;;;;;;;9.75;3.40;;;;;;;18.27;100.00;100959.72;4993762;28;20064;-74
2022/09/07 06:32:22;;;;;;;7.15;3.63;;;;;;;18.41;100.00;100961.34;4995770;28;20030;-76
2022/09/07 06:34:48;;;;;;;7.45;3.63;;;;;;;18.57;100.00;100978.50;5009378;28;20506;-77
2022/09/07 06:37:13;;;;;;;11.55;3.28;;;;;;;18.73;100.00;100982.50;4979902;28;20034;-75
2022/09/07 06:39:39;;;;;;;5.40;2.63;;;;;;;18.79;99.97;100986.91;5003082;28;20041;-76
2022/09/07 06:42:04;;;;;;;8.73;3.30;;;;;;;18.95;100.00;100987.50;5000519;28;20092;-76
2022/09/07 06:44:30;;;;;;;7.28;3.83;;;;;;;19.02;99.01;100993.56;5006980;28;20038;-76
2022/09/07 06:46:56;;;;;;;9.45;3.08;;;;;;;18.82;98.19;100989.16;4994557;28;20030;-76
2022/09/07 06:49:25;;;;;;;13.00;2.85;;;;;;;18.72;97.08;100996.63;4994674;28;20042;-74
2022/09/07 06:51:50;;;;;;;5.35;2.42;;;;;;;18.66;98.10;101005.31;4995121;28;20113;-75
2022/09/07 06:54:16;;;;;;;16.25;3.13;;;;;;;18.67;98.51;101005.13;4993921;28;20107;-75
2022/09/07 06:56:42;;;;;;;3.65;2.17;;;;;;;18.69;98.85;101007.56;4994582;28;20133;-75
2022/09/07 06:59:08;;;;;;;6.40;2.58;;;;;;;18.64;99.52;101018.66;4992969;28;20121;-74
2022/09/07 07:01:33;;;;;;;8.38;3.13;;;;;;;18.55;98.92;101012.00;4999205;28;20511;-73
2022/09/07 07:04:00;;;;;;;3.15;1.80;;;;;;;18.55;99.25;101022.50;4997878;28;20034;-75
2022/09/07 07:06:33;;;;;;;7.60;2.30;;;;;;;18.52;99.08;101017.69;4995613;28;20038;-76
2022/09/07 07:08:59;;;;;;;7.53;2.22;;;;;;;18.48;99.59;101019.09;5008552;28;20038;-76
2022/09/07 07:11:24;;;;;;;7.60;2.65;;;;;;;18.51;98.39;101023.91;5023657;28;20041;-76
2022/09/07 07:13:50;;;;;;;4.63;2.20;;;;;;;18.46;98.92;101019.28;5022548;28;20037;-76
2022/09/07 07:16:16;;;;;;;5.15;2.20;;;;;;;18.45;99.25;101016.88;5027695;28;20840;-75
2022/09/07 07:18:43;;;;;;;3.88;1.77;;;;;;;18.43;99.34;101009.19;4994905;28;20669;-76
2022/09/07 07:21:10;;;;;;;3.58;2.60;;;;;;;18.42;99.85;101012.00;5001092;28;20046;-75
2022/09/07 07:23:36;;;;;;;5.55;2.50;;;;;;;18.40;100.00;101017.50;4997078;28;20108;-76
2022/09/07 07:26:04;;;;;;;3.25;2.30;;;;;;;18.38;100.00;101027.34;5008462;28;20053;-76
2022/09/07 07:28:30;;;;;;;7.88;2.47;;;;;;;18.31;100.00;101023.13;4997796;28;20033;-72
2022/09/07 07:30:57;;;;;;;3.50;2.40;;;;;;;18.24;100.00;101029.19;4997463;28;20075;-75
2022/09/07 07:33:23;;;;;;;3.38;2.30;;;;;;;18.24;100.00;101033.63;5004081;28;20038;-75
2022/09/07 07:35:48;;;;;;;2.95;2.10;;;;;;;18.24;100.00;101036.25;4998296;28;20538;-75
2022/09/07 07:38:14;;;;;;;4.68;2.40;;;;;;;18.26;100.00;101049.97;4994145;28;20030;-75
2022/09/07 07:40:39;;;;;;;6.55;3.50;;;;;;;18.27;100.00;101055.03;4991164;28;20509;-73
2022/09/07 07:43:05;;;;;;;7.80;2.85;;;;;;;18.20;100.00;101062.09;4987749;28;20065;-76
2022/09/07 07:45:30;;;;;;;7.07;2.85;;;;;;;18.16;100.00;101047.75;4990849;28;20031;-75
2022/09/07 07:47:56;;;;;;;5.60;2.90;;;;;;;18.15;100.00;101046.13;4989452;28;20046;-76
2022/09/07 07:50:21;;;;;;;13.25;3.05;;;;;;;18.13;100.00;101047.34;4996229;28;20049;-76
2022/09/07 07:52:47;;;;;;;6.03;2.25;;;;;;;18.13;100.00;101040.25;4989915;28;20045;-74
2022/09/07 07:55:12;;;;;;;5.60;3.20;;;;;;;18.15;100.00;101042.69;5008073;28;20041;-76
2022/09/07 07:57:38;;;;;;;5.72;2.75;;;;;;;18.14;100.00;101036.66;5022617;28;20073;-75
2022/09/07 08:00:05;;;;;;;6.97;3.10;;;;;;;18.15;100.00;101033.00;4991149;28;20046;-76
2022/09/07 08:02:36;;;;;;;;;;;;;;;18.19;100.00;101034.22;5025210;28;20030;-73
2022/09/07 08:05:02;;;;;;;3.33;2.50;;;;;;;18.24;100.00;101036.25;4978654;28;19925;-76
2022/09/07 08:07:27;;;;;;;4.57;2.58;;;;;;;18.31;100.00;101026.56;5029182;28;20029;-77
2022/09/07 08:09:53;;;;;;;4.75;2.83;;;;;;;18.43;100.00;101029.38;5000304;28;20422;-75
2022/09/07 08:12:19;;;;;;;5.80;3.30;;;;;;;18.57;100.00;101025.75;4999063;28;20033;-75
2022/09/07 08:14:48;;;;;;;5.82;3.60;;;;;;;18.66;100.00;101029.75;5027868;28;20042;-75
2022/09/07 08:17:16;;;;;;;7.70;4.10;;;;;;;18.72;100.00;101043.09;4998146;28;20488;-74
2022/09/07 08:19:41;;;;;;;9.18;3.95;;;;;;;18.75;100.00;101043.50;5003109;28;20389;-76
2022/09/07 08:22:09;;;;;;;6.78;3.63;;;;;;;18.86;100.00;101045.53;4996053;28;20054;-74
2022/09/07 08:24:35;;;;;;;5.13;3.17;;;;;;;18.87;100.00;101043.72;4999737;28;20025;-75
2022/09/07 08:27:00;;;;;;;7.95;3.80;;;;;;;18.88;100.00;101045.34;4999905;28;20386;-76
2022/09/07 08:29:26;;;;;;;9.50;4.07;;;;;;;19.17;100.00;101046.66;5004375;28;20368;-76
2022/09/07 08:31:51;;;;;;;7.10;4.15;;;;;;;19.56;100.00;101034.38;5002137;28;20497;-73
2022/09/07 08:34:17;;;;;;;9.60;4.43;;;;;;;19.62;99.06;101040.63;4998294;28;20022;-76
2022/09/07 08:36:42;;;;;;;6.85;3.88;;;;;;;19.58;98.14;101042.06;4993834;28;20479;-76
2022/09/07 08:39:09;;;;;;;5.00;3.95;;;;;;;19.52;98.42;101045.56;5000288;28;20050;-76
2022/09/07 08:41:55;;;;;;;6.95;3.42;;;;;;;19.51;99.49;101054.44;4998295;28;20402;-76
2022/09/07 08:44:32;;;;;;;7.38;4.00;;;;;;;19.64;98.51;101049.91;5005365;28;20049;-75
2022/09/07 08:47:05;;;;;;;5.93;3.92;;;;;;;20.40;97.20;101053.53;5004334;28;20034;-76
2022/09/07 08:49:48;;;;;;;4.95;3.80;;;;;;;20.50;92.63;101045.16;5000354;28;20120;-74
2022/09/07 08:52:14;;;;;;;;;;;;;;;20.56;94.17;101044.28;4995255;28;20066;-74
2022/09/07 08:54:43;;;;;;;7.37;4.27;;;;;;;20.25;93.96;101053.06;4999876;28;19957;-74
2022/09/07 08:57:09;;;;;;;10.20;3.67;;;;;;;20.28;94.21;101052.59;4999454;28;20465;-75
2022/09/07 08:59:50;;;;;;;5.65;4.20;;;;;;;20.22;94.66;101050.84;4996507;28;20368;-75
2022/09/07 09:02:16;;;;;;;6.43;4.10;;;;;;;20.03;95.38;101048.13;5006786;28;20041;-76
2022/09/07 09:04:43;;;;;;;5.45;4.30;;;;;;;20.27;94.19;101048.38;4997853;28;20655;-75
2022/09/07 09:07:24;;;;;;;6.53;3.22;;;;;;;20.41;94.14;101038.53;5024384;28;20034;-74
2022/09/07 09:10:15;;;;;;;5.22;2.80;;;;;;;20.36;94.48;101044.47;4996576;28;20037;-75
2022/09/07 09:13:01;;;;;;;4.32;2.88;;;;;;;21.31;91.91;101038.06;5024851;28;20042;-72
2022/09/07 09:15:46;;;;;;;7.50;2.60;;;;;;;22.22;85.26;101035.41;4999903;28;20053;-75
2022/09/07 09:18:12;;;;;;;6.68;3.92;;;;;;;22.59;84.36;101031.78;5009102;28;20054;-75
2022/09/07 09:20:48;;;;;;;4.28;2.88;;;;;;;23.04;82.37;101039.91;5004966;28;20068;-74
2022/09/07 09:23:16;;;;;;;5.28;3.15;;;;;;;23.28;81.76;101047.78;5023633;28;20434;-75
2022/09/07 09:25:51;;;;;;;5.97;2.83;;;;;;;23.34;77.48;101049.50;5000721;28;20057;-76
2022/09/07 09:28:17;;;;;;;6.55;2.53;;;;;;;23.47;77.67;101054.53;5001275;28;20041;-75
2022/09/07 09:30:42;;;;;;;4.68;3.08;;;;;;;23.71;78.44;101051.75;5006567;28;20062;-74
2022/09/07 09:33:29;;;;;;;7.68;2.85;;;;;;;23.85;77.02;101044.38;4998339;28;20112;-74
2022/09/07 09:36:29;;;;;;;4.68;2.45;;;;;;;24.12;76.22;101057.78;5015815;28;20046;-74
2022/09/07 09:38:55;;;;;;;7.47;2.50;;;;;;;24.18;76.29;101067.44;5025252;28;20034;-73
2022/09/07 09:41:20;;;;;;;5.63;3.05;;;;;;;24.26;76.10;101066.22;5026249;28;20371;-74
2022/09/07 09:43:54;;;;;;;6.00;2.75;;;;;;;24.21;75.36;101072.25;4997812;28;20053;-75
2022/09/07 09:46:30;;;;;;;6.97;2.50;;;;;;;24.44;75.08;101065.19;5000657;28;20042;-75
2022/09/07 09:48:59;;;;;;;5.75;2.78;;;;;;;24.04;74.73;101071.44;5011790;28;20035;-74
2022/09/07 09:51:32;;;;;;;8.57;3.28;;;;;;;23.89;73.09;101064.84;4999471;28;20491;-74
2022/09/07 09:54:04;;;;;;;9.90;3.10;;;;;;;23.98;73.26;101067.09;4996470;28;20483;-75
2022/09/07 09:56:45;;;;;;;4.38;2.70;;;;;;;24.36;74.09;101063.75;4996579;28;20128;-74
2022/09/07 09:59:23;;;;;;;3.60;2.22;;;;;;;24.47;72.45;101060.22;4994951;28;20026;-73
2022/09/07 10:01:50;;;;;;;7.25;2.53;;;;;;;24.47;74.25;101067.38;5027409;28;20045;-74
2022/09/07 10:04:24;;;;;;;5.32;2.45;;;;;;;24.29;72.08;101073.69;4996737;28;20217;-75
2022/09/07 10:06:53;;;;;;;8.88;3.55;;;;;;;23.95;72.65;101073.66;5010121;28;20124;-75
2022/09/07 10:09:28;;;;;;;5.30;3.40;;;;;;;23.52;73.98;101070.47;4989950;28;20069;-74
2022/09/07 10:11:58;;;;;;;4.85;3.42;;;;;;;23.27;76.90;101073.44;4998359;28;20031;-75
2022/09/07 10:14:42;;;;;;;9.48;3.72;;;;;;;23.33;78.13;101077.00;4992649;28;20116;-76
2022/09/07 10:17:12;;;;;;;7.63;3.35;;;;;;;23.63;75.52;101065.41;4999704;28;20091;-75
2022/09/07 10:19:41;;;;;;;7.72;4.13;;;;;;;23.50;74.84;101075.19;4982929;28;20030;-75
2022/09/07 10:22:23;;;;;;;7.05;3.58;;;;;;;23.75;75.17;101074.06;5008843;28;20106;-75
2022/09/07 10:24:49;;;;;;;6.45;3.70;;;;;;;23.77;73.31;101071.19;4996493;28;20091;-76
2022/09/07 10:27:37;;;;;;;6.25;3.90;;;;;;;23.68;72.72;101076.88;4993178;28;20037;-76
2022/09/07 10:30:19;;;;;;;11.30;3.55;;;;;;;23.43;73.43;101077.22;4992366;28;20031;-76
2022/09/07 10:33:01;;;;;;;8.27;3.72;;;;;;;23.69;73.48;101075.03;4999913;28;20042;-75
2022/09/07 10:35:38;;;;;;;9.98;3.60;;;;;;;23.82;72.39;101073.97;5015004;28;20044;-76
2022/09/07 10:38:13;;;;;;;10.80;4.85;;;;;;;23.89;70.84;101062.19;4989233;28;20068;-75
2022/09/07 10:40:41;;;;;;;6.45;3.58;;;;;;;24.09;70.38;101072.34;4997004;28;20467;-74
2022/09/07 10:43:22;;;;;;;7.40;4.05;;;;;;;24.18;69.18;101062.13;5024177;28;20116;-74
2022/09/07 10:46:06;;;;;;;6.53;3.60;;;;;;;24.29;69.16;101057.81;4997006;28;20034;-77
2022/09/07 10:48:31;;;;;;;9.20;4.03;;;;;;;24.19;72.12;101052.34;5004999;28;20405;-76
2022/09/07 10:51:07;;;;;;;4.63;3.30;;;;;;;24.51;69.74;101041.19;5000657;28;20117;-73
2022/09/07 10:53:33;;;;;;;9.77;3.17;;;;;;;24.73;66.66;101049.97;5000778;28;20030;-77
2022/09/07 10:56:10;;;;;;;5.25;2.60;;;;;;;24.85;66.18;101042.72;5016863;28;20149;-76
2022/09/07 10:58:53;;;;;;;4.68;3.33;;;;;;;24.80;65.41;101039.22;5014704;28;20394;-76
2022/09/07 11:01:33;;;;;;;8.88;3.20;;;;;;;25.01;65.72;101035.75;5016298;28;20231;-75
2022/09/07 11:04:56;;;;;;;6.05;3.38;;;;;;;25.09;66.85;101039.03;5013233;28;20396;-74
2022/09/07 11:07:53;;;;;;;8.60;5.03;;;;;;;24.96;65.42;101045.50;5003554;28;20113;-77
2022/09/07 11:10:41;;;;;;;5.20;3.45;;;;;;;24.65;67.53;101045.09;4963355;28;20089;-75
2022/09/07 11:13:11;;;;;;;9.70;4.22;;;;;;;24.75;66.73;101037.31;5005765;28;20050;-76
2022/09/07 11:15:47;;;;;;;5.95;3.45;;;;;;;24.65;65.96;101045.91;5010269;28;20061;-76
2022/09/07 11:18:34;;;;;;;7.95;3.90;;;;;;;24.35;67.13;101046.22;4999335;28;20058;-74
2022/09/07 11:21:05;;;;;;;9.65;4.13;;;;;;;24.06;66.99;101046.31;5013004;28;20501;-74
2022/09/07 11:23:45;;;;;;;7.78;3.72;;;;;;;24.18;67.97;101040.13;5024249;28;20216;-76
2022/09/07 11:26:11;;;;;;;7.45;3.50;;;;;;;24.29;67.25;101044.56;4999446;28;20026;-75
2022/09/07 11:28:49;;;;;;;6.72;3.85;;;;;;;24.49;66.06;101036.13;5002646;28;20026;-75
2022/09/07 11:31:26;;;;;;;7.32;3.70;;;;;;;24.77;64.92;101043.16;4998491;28;20044;-75
2022/09/07 11:33:54;;;;;;;5.45;3.00;;;;;;;24.74;63.65;101034.91;5000890;28;20025;-77
2022/09/07 11:36:20;;;;;;;7.70;3.70;;;;;;;24.63;63.33;101036.59;4975564;28;20422;-78
2022/09/07 11:38:56;;;;;;;5.15;3.42;;;;;;;24.34;63.96;101031.41;4991468;28;20266;-75